sensor_id;sensor_type;location;lat;lon;timestamp;pressure;altitude;pressure_sealevel;temperature
54306;BMP280;50434;45.188;5.712;2022-08-16T00:01:12;98724.72;;;22.96
54306;BMP280;50434;45.188;5.712;2022-08-16T00:03:37;98728.09;;;22.94
54306;BMP280;50434;45.188;5.712;2022-08-16T00:06:03;98727.50;;;22.96
54306;BMP280;50434;45.188;5.712;2022-08-16T00:08:28;98721.13;;;22.93
54306;BMP280;50434;45.188;5.712;2022-08-16T00:10:54;98717.50;;;22.91
54306;BMP280;50434;45.188;5.712;2022-08-16T00:13:19;98714.72;;;22.91
54306;BMP280;50434;45.188;5.712;2022-08-16T00:15:47;98720.72;;;22.85
54306;BMP280;50434;45.188;5.712;2022-08-16T00:18:14;98718.75;;;22.88
54306;BMP280;50434;45.188;5.712;2022-08-16T00:20:43;98724.31;;;22.88
54306;BMP280;50434;45.188;5.712;2022-08-16T00:23:10;98731.13;;;22.85
54306;BMP280;50434;45.188;5.712;2022-08-16T00:25:36;98726.59;;;22.78
54306;BMP280;50434;45.188;5.712;2022-08-16T00:28:01;98726.94;;;22.70
54306;BMP280;50434;45.188;5.712;2022-08-16T00:30:27;98721.16;;;22.66
54306;BMP280;50434;45.188;5.712;2022-08-16T00:32:54;98719.69;;;22.65
54306;BMP280;50434;45.188;5.712;2022-08-16T00:35:28;98717.44;;;22.62
54306;BMP280;50434;45.188;5.712;2022-08-16T00:37:53;98719.50;;;22.61
54306;BMP280;50434;45.188;5.712;2022-08-16T00:40:27;98720.22;;;22.62
54306;BMP280;50434;45.188;5.712;2022-08-16T00:42:53;98718.75;;;22.60
54306;BMP280;50434;45.188;5.712;2022-08-16T00:45:30;98726.50;;;22.62
54306;BMP280;50434;45.188;5.712;2022-08-16T00:47:58;98726.00;;;22.66
54306;BMP280;50434;45.188;5.712;2022-08-16T00:50:28;98724.44;;;22.63
54306;BMP280;50434;45.188;5.712;2022-08-16T00:52:55;98720.22;;;22.62
54306;BMP280;50434;45.188;5.712;2022-08-16T00:55:22;98719.28;;;22.57
54306;BMP280;50434;45.188;5.712;2022-08-16T00:57:50;98724.13;;;22.56
54306;BMP280;50434;45.188;5.712;2022-08-16T01:00:17;98725.16;;;22.49
54306;BMP280;50434;45.188;5.712;2022-08-16T01:02:42;98711.16;;;22.47
54306;BMP280;50434;45.188;5.712;2022-08-16T01:05:08;98710.03;;;22.39
54306;BMP280;50434;45.188;5.712;2022-08-16T01:07:34;98714.13;;;22.38
54306;BMP280;50434;45.188;5.712;2022-08-16T01:09:59;98707.84;;;22.37
54306;BMP280;50434;45.188;5.712;2022-08-16T01:12:25;98705.19;;;22.39
54306;BMP280;50434;45.188;5.712;2022-08-16T01:14:53;98708.34;;;22.34
54306;BMP280;50434;45.188;5.712;2022-08-16T01:17:21;98708.16;;;22.30
54306;BMP280;50434;45.188;5.712;2022-08-16T01:19:50;98704.25;;;22.35
54306;BMP280;50434;45.188;5.712;2022-08-16T01:22:51;98710.63;;;22.37
54306;BMP280;50434;45.188;5.712;2022-08-16T01:25:11;98721.53;;;22.33
54306;BMP280;50434;45.188;5.712;2022-08-16T01:27:41;98715.44;;;22.37
54306;BMP280;50434;45.188;5.712;2022-08-16T01:30:12;98711.78;;;22.32
54306;BMP280;50434;45.188;5.712;2022-08-16T01:32:40;98717.34;;;22.32
54306;BMP280;50434;45.188;5.712;2022-08-16T01:35:20;98723.47;;;22.31
54306;BMP280;50434;45.188;5.712;2022-08-16T01:37:53;98710.03;;;22.25
54306;BMP280;50434;45.188;5.712;2022-08-16T01:40:22;98721.22;;;22.27
54306;BMP280;50434;45.188;5.712;2022-08-16T01:42:49;98714.84;;;22.25
54306;BMP280;50434;45.188;5.712;2022-08-16T01:45:17;98717.72;;;22.27
54306;BMP280;50434;45.188;5.712;2022-08-16T01:47:43;98713.41;;;22.24
54306;BMP280;50434;45.188;5.712;2022-08-16T01:50:10;98712.59;;;22.21
54306;BMP280;50434;45.188;5.712;2022-08-16T01:52:36;98714.63;;;22.21
54306;BMP280;50434;45.188;5.712;2022-08-16T01:55:05;98720.91;;;22.21
54306;BMP280;50434;45.188;5.712;2022-08-16T01:57:31;98719.03;;;22.12
54306;BMP280;50434;45.188;5.712;2022-08-16T01:59:57;98727.38;;;22.12
54306;BMP280;50434;45.188;5.712;2022-08-16T02:02:23;98723.78;;;22.10
54306;BMP280;50434;45.188;5.712;2022-08-16T02:04:49;98728.91;;;22.02
54306;BMP280;50434;45.188;5.712;2022-08-16T02:07:15;98723.63;;;21.94
54306;BMP280;50434;45.188;5.712;2022-08-16T02:09:43;98729.91;;;21.95
54306;BMP280;50434;45.188;5.712;2022-08-16T02:12:09;98725.28;;;21.99
54306;BMP280;50434;45.188;5.712;2022-08-16T02:14:35;98727.22;;;21.97
54306;BMP280;50434;45.188;5.712;2022-08-16T02:17:04;98732.06;;;21.96
54306;BMP280;50434;45.188;5.712;2022-08-16T02:19:31;98737.63;;;21.96
54306;BMP280;50434;45.188;5.712;2022-08-16T02:21:58;98729.19;;;21.94
54306;BMP280;50434;45.188;5.712;2022-08-16T02:24:24;98732.25;;;22.00
54306;BMP280;50434;45.188;5.712;2022-08-16T02:26:50;98723.84;;;21.98
54306;BMP280;50434;45.188;5.712;2022-08-16T02:29:18;98736.16;;;21.95
54306;BMP280;50434;45.188;5.712;2022-08-16T02:31:45;98734.22;;;21.98
54306;BMP280;50434;45.188;5.712;2022-08-16T02:34:11;98736.16;;;21.95
54306;BMP280;50434;45.188;5.712;2022-08-16T02:36:37;98736.16;;;21.95
54306;BMP280;50434;45.188;5.712;2022-08-16T02:39:04;98735.72;;;21.87
54306;BMP280;50434;45.188;5.712;2022-08-16T02:41:31;98729.34;;;21.85
54306;BMP280;50434;45.188;5.712;2022-08-16T02:43:57;98732.13;;;21.85
54306;BMP280;50434;45.188;5.712;2022-08-16T02:46:23;98726.56;;;21.85
54306;BMP280;50434;45.188;5.712;2022-08-16T02:48:48;98734.31;;;21.86
54306;BMP280;50434;45.188;5.712;2022-08-16T02:51:13;98730.00;;;21.83
54306;BMP280;50434;45.188;5.712;2022-08-16T02:53:42;98728.03;;;21.86
54306;BMP280;50434;45.188;5.712;2022-08-16T02:56:10;98737.44;;;21.81
54306;BMP280;50434;45.188;5.712;2022-08-16T02:58:37;98740.03;;;21.77
54306;BMP280;50434;45.188;5.712;2022-08-16T03:01:02;98730.00;;;21.72
54306;BMP280;50434;45.188;5.712;2022-08-16T03:03:28;98738.75;;;21.66
54306;BMP280;50434;45.188;5.712;2022-08-16T03:05:53;98737.78;;;21.62
54306;BMP280;50434;45.188;5.712;2022-08-16T03:08:21;98743.03;;;21.56
54306;BMP280;50434;45.188;5.712;2022-08-16T03:10:47;98728.31;;;21.53
54306;BMP280;50434;45.188;5.712;2022-08-16T03:13:14;98736.50;;;21.51
54306;BMP280;50434;45.188;5.712;2022-08-16T03:15:43;98738.06;;;21.54
54306;BMP280;50434;45.188;5.712;2022-08-16T03:18:09;98731.28;;;21.57
54306;BMP280;50434;45.188;5.712;2022-08-16T03:20:34;98732.00;;;21.58
54306;BMP280;50434;45.188;5.712;2022-08-16T03:23:02;98732.81;;;21.60
54306;BMP280;50434;45.188;5.712;2022-08-16T03:25:28;98724.50;;;21.60
54306;BMP280;50434;45.188;5.712;2022-08-16T03:27:54;98723.19;;;21.61
54306;BMP280;50434;45.188;5.712;2022-08-16T03:30:27;98725.22;;;21.61
54306;BMP280;50434;45.188;5.712;2022-08-16T03:32:53;98718.38;;;21.62
54306;BMP280;50434;45.188;5.712;2022-08-16T03:35:23;98722.25;;;21.57
54306;BMP280;50434;45.188;5.712;2022-08-16T03:37:57;98712.34;;;21.53
54306;BMP280;50434;45.188;5.712;2022-08-16T03:40:23;98708.28;;;21.55
54306;BMP280;50434;45.188;5.712;2022-08-16T03:42:49;98717.31;;;21.55
54306;BMP280;50434;45.188;5.712;2022-08-16T03:45:14;98722.75;;;21.53
54306;BMP280;50434;45.188;5.712;2022-08-16T03:47:40;98718.78;;;21.44
54306;BMP280;50434;45.188;5.712;2022-08-16T03:50:06;98710.88;;;21.39
54306;BMP280;50434;45.188;5.712;2022-08-16T03:52:33;98709.41;;;21.38
54306;BMP280;50434;45.188;5.712;2022-08-16T03:55:00;98719.28;;;21.41
54306;BMP280;50434;45.188;5.712;2022-08-16T03:57:27;98719.94;;;21.39
54306;BMP280;50434;45.188;5.712;2022-08-16T03:59:53;98716.44;;;21.39
54306;BMP280;50434;45.188;5.712;2022-08-16T04:02:19;98721.97;;;21.39
54306;BMP280;50434;45.188;5.712;2022-08-16T04:04:45;98719.06;;;21.37
54306;BMP280;50434;45.188;5.712;2022-08-16T04:07:11;98723.16;;;21.36
54306;BMP280;50434;45.188;5.712;2022-08-16T04:09:36;98717.75;;;21.38
54306;BMP280;50434;45.188;5.712;2022-08-16T04:12:04;98714.97;;;21.38
54306;BMP280;50434;45.188;5.712;2022-08-16T04:14:29;98711.22;;;21.33
54306;BMP280;50434;45.188;5.712;2022-08-16T04:16:55;98707.41;;;21.27
54306;BMP280;50434;45.188;5.712;2022-08-16T04:19:20;98714.06;;;21.22
54306;BMP280;50434;45.188;5.712;2022-08-16T04:21:50;98717.22;;;21.16
54306;BMP280;50434;45.188;5.712;2022-08-16T04:24:15;98718.56;;;21.15
54306;BMP280;50434;45.188;5.712;2022-08-16T04:26:41;98713.81;;;21.18
54306;BMP280;50434;45.188;5.712;2022-08-16T04:29:06;98725.66;;;21.18
54306;BMP280;50434;45.188;5.712;2022-08-16T04:31:31;98715.13;;;21.17
54306;BMP280;50434;45.188;5.712;2022-08-16T04:33:58;98718.78;;;21.19
54306;BMP280;50434;45.188;5.712;2022-08-16T04:36:27;98718.16;;;21.21
54306;BMP280;50434;45.188;5.712;2022-08-16T04:38:53;98723.69;;;21.21
54306;BMP280;50434;45.188;5.712;2022-08-16T04:41:19;98724.69;;;21.14
54306;BMP280;50434;45.188;5.712;2022-08-16T04:43:45;98719.63;;;21.10
54306;BMP280;50434;45.188;5.712;2022-08-16T04:46:11;98719.19;;;21.02
54306;BMP280;50434;45.188;5.712;2022-08-16T04:48:39;98728.22;;;21.03
54306;BMP280;50434;45.188;5.712;2022-08-16T04:51:06;98735.31;;;21.06
54306;BMP280;50434;45.188;5.712;2022-08-16T04:53:32;98734.22;;;21.11
54306;BMP280;50434;45.188;5.712;2022-08-16T04:55:58;98734.53;;;21.17
54306;BMP280;50434;45.188;5.712;2022-08-16T04:58:25;98743.50;;;21.15
54306;BMP280;50434;45.188;5.712;2022-08-16T05:00:54;98740.25;;;21.19
54306;BMP280;50434;45.188;5.712;2022-08-16T05:03:20;98735.28;;;21.17
54306;BMP280;50434;45.188;5.712;2022-08-16T05:05:47;98736.63;;;21.16
54306;BMP280;50434;45.188;5.712;2022-08-16T05:08:14;98746.38;;;21.17
54306;BMP280;50434;45.188;5.712;2022-08-16T05:10:39;98754.09;;;21.19
54306;BMP280;50434;45.188;5.712;2022-08-16T05:13:06;98744.31;;;21.18
54306;BMP280;50434;45.188;5.712;2022-08-16T05:15:33;98747.72;;;21.16
54306;BMP280;50434;45.188;5.712;2022-08-16T05:17:58;98750.97;;;21.13
54306;BMP280;50434;45.188;5.712;2022-08-16T05:20:26;98742.09;;;21.03
54306;BMP280;50434;45.188;5.712;2022-08-16T05:22:51;98738.22;;;20.96
54306;BMP280;50434;45.188;5.712;2022-08-16T05:25:17;98741.84;;;20.99
54306;BMP280;50434;45.188;5.712;2022-08-16T05:27:42;98747.38;;;20.99
54306;BMP280;50434;45.188;5.712;2022-08-16T05:30:09;98751.72;;;21.02
54306;BMP280;50434;45.188;5.712;2022-08-16T05:32:38;98739.91;;;21.01
54306;BMP280;50434;45.188;5.712;2022-08-16T05:35:06;98748.94;;;21.02
54306;BMP280;50434;45.188;5.712;2022-08-16T05:37:33;98741.84;;;20.99
54306;BMP280;50434;45.188;5.712;2022-08-16T05:39:59;98750.88;;;20.99
54306;BMP280;50434;45.188;5.712;2022-08-16T05:42:25;98756.44;;;20.99
54306;BMP280;50434;45.188;5.712;2022-08-16T05:44:50;98749.06;;;21.04
54306;BMP280;50434;45.188;5.712;2022-08-16T05:47:16;98743.63;;;21.06
54306;BMP280;50434;45.188;5.712;2022-08-16T05:49:41;98754.13;;;21.07
54306;BMP280;50434;45.188;5.712;2022-08-16T05:52:08;98751.59;;;21.11
54306;BMP280;50434;45.188;5.712;2022-08-16T05:54:33;98752.19;;;21.10
54306;BMP280;50434;45.188;5.712;2022-08-16T05:56:59;98761.81;;;21.09
54306;BMP280;50434;45.188;5.712;2022-08-16T05:59:25;98758.94;;;21.07
54306;BMP280;50434;45.188;5.712;2022-08-16T06:01:50;98756.28;;;21.09
54306;BMP280;50434;45.188;5.712;2022-08-16T06:04:17;98757.63;;;21.08
54306;BMP280;50434;45.188;5.712;2022-08-16T06:06:43;98756.28;;;21.09
54306;BMP280;50434;45.188;5.712;2022-08-16T06:09:13;98762.69;;;21.11
54306;BMP280;50434;45.188;5.712;2022-08-16T06:11:40;98766.19;;;21.12
54306;BMP280;50434;45.188;5.712;2022-08-16T06:14:07;98764.97;;;21.15
54306;BMP280;50434;45.188;5.712;2022-08-16T06:16:33;98771.09;;;21.13
54306;BMP280;50434;45.188;5.712;2022-08-16T06:18:58;98770.50;;;21.15
54306;BMP280;50434;45.188;5.712;2022-08-16T06:21:24;98769.19;;;21.16
54306;BMP280;50434;45.188;5.712;2022-08-16T06:23:49;98770.50;;;21.15
54306;BMP280;50434;45.188;5.712;2022-08-16T06:26:15;98765.44;;;21.11
54306;BMP280;50434;45.188;5.712;2022-08-16T06:28:40;98766.53;;;21.06
54306;BMP280;50434;45.188;5.712;2022-08-16T06:31:08;98765.94;;;21.08
54306;BMP280;50434;45.188;5.712;2022-08-16T06:33:34;98768.81;;;21.10
54306;BMP280;50434;45.188;5.712;2022-08-16T06:35:59;98772.53;;;21.14
54306;BMP280;50434;45.188;5.712;2022-08-16T06:38:25;98766.13;;;21.23
54306;BMP280;50434;45.188;5.712;2022-08-16T06:40:51;98758.66;;;21.26
54306;BMP280;50434;45.188;5.712;2022-08-16T06:43:18;98768.53;;;21.29
54306;BMP280;50434;45.188;5.712;2022-08-16T06:45:45;98765.88;;;21.31
54306;BMP280;50434;45.188;5.712;2022-08-16T06:48:10;98762.72;;;21.36
54306;BMP280;50434;45.188;5.712;2022-08-16T06:50:36;98762.22;;;21.40
54306;BMP280;50434;45.188;5.712;2022-08-16T06:53:02;98768.13;;;21.46
54306;BMP280;50434;45.188;5.712;2022-08-16T06:55:28;98765.56;;;21.50
54306;BMP280;50434;45.188;5.712;2022-08-16T06:57:54;98754.25;;;21.46
54306;BMP280;50434;45.188;5.712;2022-08-16T07:00:20;98764.63;;;21.45
54306;BMP280;50434;45.188;5.712;2022-08-16T07:02:46;98750.88;;;21.47
54306;BMP280;50434;45.188;5.712;2022-08-16T07:05:13;98758.81;;;21.53
54306;BMP280;50434;45.188;5.712;2022-08-16T07:07:42;98750.69;;;21.57
54306;BMP280;50434;45.188;5.712;2022-08-16T07:10:09;98753.13;;;21.63
54306;BMP280;50434;45.188;5.712;2022-08-16T07:12:35;98755.91;;;21.63
54306;BMP280;50434;45.188;5.712;2022-08-16T07:15:01;98747.06;;;21.66
54306;BMP280;50434;45.188;5.712;2022-08-16T07:17:27;98752.94;;;21.72
54306;BMP280;50434;45.188;5.712;2022-08-16T07:19:53;98743.50;;;21.77
54306;BMP280;50434;45.188;5.712;2022-08-16T07:22:20;98747.81;;;21.80
54306;BMP280;50434;45.188;5.712;2022-08-16T07:24:46;98733.66;;;21.88
54306;BMP280;50434;45.188;5.712;2022-08-16T07:27:12;98735.94;;;21.91
54306;BMP280;50434;45.188;5.712;2022-08-16T07:29:38;98747.50;;;21.99
54306;BMP280;50434;45.188;5.712;2022-08-16T07:32:05;98742.28;;;22.05
54306;BMP280;50434;45.188;5.712;2022-08-16T07:34:30;98746.50;;;22.06
54306;BMP280;50434;45.188;5.712;2022-08-16T07:36:58;98752.44;;;22.14
54306;BMP280;50434;45.188;5.712;2022-08-16T07:39:24;98756.59;;;22.13
54306;BMP280;50434;45.188;5.712;2022-08-16T07:41:50;98754.03;;;22.17
54306;BMP280;50434;45.188;5.712;2022-08-16T07:44:15;98749.38;;;22.22
54306;BMP280;50434;45.188;5.712;2022-08-16T07:46:40;98753.75;;;22.25
54306;BMP280;50434;45.188;5.712;2022-08-16T07:49:06;98758.16;;;22.30
54306;BMP280;50434;45.188;5.712;2022-08-16T07:51:33;98747.97;;;22.34
54306;BMP280;50434;45.188;5.712;2022-08-16T07:54:02;98744.38;;;22.32
54306;BMP280;50434;45.188;5.712;2022-08-16T07:56:28;98739.28;;;22.40
54306;BMP280;50434;45.188;5.712;2022-08-16T07:58:54;98740.06;;;22.42
54306;BMP280;50434;45.188;5.712;2022-08-16T08:01:20;98739.06;;;22.49
54306;BMP280;50434;45.188;5.712;2022-08-16T08:03:50;98746.03;;;22.64
54306;BMP280;50434;45.188;5.712;2022-08-16T08:06:18;98754.19;;;22.74
54306;BMP280;50434;45.188;5.712;2022-08-16T08:08:44;98744.00;;;22.78
54306;BMP280;50434;45.188;5.712;2022-08-16T08:11:11;98736.47;;;22.81
54306;BMP280;50434;45.188;5.712;2022-08-16T08:13:37;98746.34;;;22.84
54306;BMP280;50434;45.188;5.712;2022-08-16T08:16:02;98741.72;;;22.88
54306;BMP280;50434;45.188;5.712;2022-08-16T08:18:29;98738.31;;;22.90
54306;BMP280;50434;45.188;5.712;2022-08-16T08:20:55;98740.69;;;22.95
54306;BMP280;50434;45.188;5.712;2022-08-16T08:23:21;98734.41;;;22.95
54306;BMP280;50434;45.188;5.712;2022-08-16T08:25:47;98736.13;;;23.02
54306;BMP280;50434;45.188;5.712;2022-08-16T08:28:13;98732.25;;;23.07
54306;BMP280;50434;45.188;5.712;2022-08-16T08:30:38;98729.22;;;23.16
54306;BMP280;50434;45.188;5.712;2022-08-16T08:33:04;98733.41;;;23.17
54306;BMP280;50434;45.188;5.712;2022-08-16T08:35:30;98740.72;;;23.24
54306;BMP280;50434;45.188;5.712;2022-08-16T08:37:56;98738.66;;;23.25
54306;BMP280;50434;45.188;5.712;2022-08-16T08:40:23;98730.41;;;23.27
54306;BMP280;50434;45.188;5.712;2022-08-16T08:42:48;98738.94;;;23.31
54306;BMP280;50434;45.188;5.712;2022-08-16T08:45:15;98735.13;;;23.38
54306;BMP280;50434;45.188;5.712;2022-08-16T08:47:42;98734.06;;;23.45
54306;BMP280;50434;45.188;5.712;2022-08-16T08:50:09;98721.69;;;23.48
54306;BMP280;50434;45.188;5.712;2022-08-16T08:52:34;98717.75;;;23.53
54306;BMP280;50434;45.188;5.712;2022-08-16T08:55:00;98718.03;;;23.59
54306;BMP280;50434;45.188;5.712;2022-08-16T08:57:29;98708.66;;;23.66
54306;BMP280;50434;45.188;5.712;2022-08-16T08:59:54;98708.97;;;23.74
54306;BMP280;50434;45.188;5.712;2022-08-16T09:02:20;98710.81;;;23.83
54306;BMP280;50434;45.188;5.712;2022-08-16T09:04:46;98708.50;;;23.93
54306;BMP280;50434;45.188;5.712;2022-08-16T09:07:11;98702.53;;;24.01
54306;BMP280;50434;45.188;5.712;2022-08-16T09:09:37;98702.19;;;24.08
54306;BMP280;50434;45.188;5.712;2022-08-16T09:12:04;98698.41;;;24.17
54306;BMP280;50434;45.188;5.712;2022-08-16T09:14:30;98693.75;;;24.22
54306;BMP280;50434;45.188;5.712;2022-08-16T09:16:56;98699.66;;;24.30
54306;BMP280;50434;45.188;5.712;2022-08-16T09:19:21;98686.00;;;24.36
54306;BMP280;50434;45.188;5.712;2022-08-16T09:21:49;98691.25;;;24.45
54306;BMP280;50434;45.188;5.712;2022-08-16T09:24:17;98688.19;;;24.55
54306;BMP280;50434;45.188;5.712;2022-08-16T09:26:42;98696.00;;;24.58
54306;BMP280;50434;45.188;5.712;2022-08-16T09:29:08;98689.88;;;24.62
54306;BMP280;50434;45.188;5.712;2022-08-16T09:31:33;98688.59;;;24.65
54306;BMP280;50434;45.188;5.712;2022-08-16T09:33:59;98685.19;;;24.66
54306;BMP280;50434;45.188;5.712;2022-08-16T09:36:26;98684.66;;;24.70
54306;BMP280;50434;45.188;5.712;2022-08-16T09:38:53;98680.75;;;24.77
54306;BMP280;50434;45.188;5.712;2022-08-16T09:41:18;98676.16;;;24.83
54306;BMP280;50434;45.188;5.712;2022-08-16T09:43:44;98680.69;;;24.92
54306;BMP280;50434;45.188;5.712;2022-08-16T09:46:10;98673.28;;;24.99
54306;BMP280;50434;45.188;5.712;2022-08-16T09:48:36;98675.59;;;25.05
54306;BMP280;50434;45.188;5.712;2022-08-16T09:51:05;98676.53;;;25.11
54306;BMP280;50434;45.188;5.712;2022-08-16T09:53:31;98666.97;;;25.16
54306;BMP280;50434;45.188;5.712;2022-08-16T09:55:57;98669.22;;;25.20
54306;BMP280;50434;45.188;5.712;2022-08-16T09:58:25;98670.16;;;25.26
54306;BMP280;50434;45.188;5.712;2022-08-16T10:00:51;98662.97;;;25.39
54306;BMP280;50434;45.188;5.712;2022-08-16T10:03:17;98667.50;;;25.48
54306;BMP280;50434;45.188;5.712;2022-08-16T10:05:43;98663.50;;;25.53
54306;BMP280;50434;45.188;5.712;2022-08-16T10:08:09;98661.59;;;25.57
54306;BMP280;50434;45.188;5.712;2022-08-16T10:10:35;98662.53;;;25.64
54306;BMP280;50434;45.188;5.712;2022-08-16T10:13:02;98651.50;;;25.68
54306;BMP280;50434;45.188;5.712;2022-08-16T10:15:37;98647.66;;;25.77
54306;BMP280;50434;45.188;5.712;2022-08-16T10:18:05;98652.03;;;25.82
54306;BMP280;50434;45.188;5.712;2022-08-16T10:20:36;98645.22;;;25.87
54306;BMP280;50434;45.188;5.712;2022-08-16T10:23:05;98640.50;;;25.91
54306;BMP280;50434;45.188;5.712;2022-08-16T10:25:32;98629.53;;;25.97
54306;BMP280;50434;45.188;5.712;2022-08-16T10:27:57;98627.69;;;26.04
54306;BMP280;50434;45.188;5.712;2022-08-16T10:30:23;98629.22;;;26.09
54306;BMP280;50434;45.188;5.712;2022-08-16T10:32:49;98628.78;;;26.16
54306;BMP280;50434;45.188;5.712;2022-08-16T10:35:14;98620.00;;;26.24
54306;BMP280;50434;45.188;5.712;2022-08-16T10:37:39;98623.09;;;26.34
54306;BMP280;50434;45.188;5.712;2022-08-16T10:40:07;98630.41;;;26.43
54306;BMP280;50434;45.188;5.712;2022-08-16T10:42:34;98623.63;;;26.50
54306;BMP280;50434;45.188;5.712;2022-08-16T10:44:59;98618.25;;;26.56
54306;BMP280;50434;45.188;5.712;2022-08-16T10:47:27;98618.53;;;26.66
54306;BMP280;50434;45.188;5.712;2022-08-16T10:49:53;98615.97;;;26.72
54306;BMP280;50434;45.188;5.712;2022-08-16T10:52:20;98610.63;;;26.80
54306;BMP280;50434;45.188;5.712;2022-08-16T10:54:45;98605.25;;;26.88
54306;BMP280;50434;45.188;5.712;2022-08-16T10:57:11;98605.44;;;26.94
54306;BMP280;50434;45.188;5.712;2022-08-16T10:59:37;98608.31;;;26.96
54306;BMP280;50434;45.188;5.712;2022-08-16T11:02:02;98607.03;;;27.01
54306;BMP280;50434;45.188;5.712;2022-08-16T11:04:28;98599.66;;;27.12
54306;BMP280;50434;45.188;5.712;2022-08-16T11:06:53;98602.06;;;27.21
54306;BMP280;50434;45.188;5.712;2022-08-16T11:09:19;98596.81;;;27.33
54306;BMP280;50434;45.188;5.712;2022-08-16T11:11:44;98580.00;;;27.33
54306;BMP280;50434;45.188;5.712;2022-08-16T11:14:10;98596.25;;;27.39
54306;BMP280;50434;45.188;5.712;2022-08-16T11:16:36;98588.56;;;27.39
54306;BMP280;50434;45.188;5.712;2022-08-16T11:19:02;98585.94;;;27.45
54306;BMP280;50434;45.188;5.712;2022-08-16T11:21:29;98597.28;;;27.49
54306;BMP280;50434;45.188;5.712;2022-08-16T11:23:54;98591.69;;;27.51
54306;BMP280;50434;45.188;5.712;2022-08-16T11:26:20;98596.78;;;27.57
54306;BMP280;50434;45.188;5.712;2022-08-16T11:28:47;98587.84;;;27.62
54306;BMP280;50434;45.188;5.712;2022-08-16T11:31:15;98588.59;;;27.65
54306;BMP280;50434;45.188;5.712;2022-08-16T11:33:40;98581.00;;;27.69
54306;BMP280;50434;45.188;5.712;2022-08-16T11:36:07;98576.06;;;27.68
54306;BMP280;50434;45.188;5.712;2022-08-16T11:38:33;98576.94;;;27.75
54306;BMP280;50434;45.188;5.712;2022-08-16T11:40:59;98580.56;;;27.79
54306;BMP280;50434;45.188;5.712;2022-08-16T11:43:31;98575.72;;;27.82
54306;BMP280;50434;45.188;5.712;2022-08-16T11:46:00;98573.75;;;27.86
54306;BMP280;50434;45.188;5.712;2022-08-16T11:48:27;98566.78;;;27.87
54306;BMP280;50434;45.188;5.712;2022-08-16T11:50:54;98564.75;;;27.92
54306;BMP280;50434;45.188;5.712;2022-08-16T11:53:21;98557.94;;;27.99
54306;BMP280;50434;45.188;5.712;2022-08-16T11:55:49;98551.69;;;28.00
54306;BMP280;50434;45.188;5.712;2022-08-16T11:58:16;98549.03;;;28.06
54306;BMP280;50434;45.188;5.712;2022-08-16T12:00:43;98544.28;;;28.13
54306;BMP280;50434;45.188;5.712;2022-08-16T12:03:10;98544.66;;;28.29
54306;BMP280;50434;45.188;5.712;2022-08-16T12:05:37;98544.41;;;28.48
54306;BMP280;50434;45.188;5.712;2022-08-16T12:08:03;98547.50;;;28.60
54306;BMP280;50434;45.188;5.712;2022-08-16T12:10:31;98547.66;;;28.68
54306;BMP280;50434;45.188;5.712;2022-08-16T12:12:57;98540.72;;;28.71
54306;BMP280;50434;45.188;5.712;2022-08-16T12:15:22;98533.13;;;28.76
54306;BMP280;50434;45.188;5.712;2022-08-16T12:17:52;98538.94;;;28.86
54306;BMP280;50434;45.188;5.712;2022-08-16T12:20:22;98532.03;;;28.91
54306;BMP280;50434;45.188;5.712;2022-08-16T12:22:48;98522.19;;;28.90
54306;BMP280;50434;45.188;5.712;2022-08-16T12:25:16;98517.44;;;28.98
54306;BMP280;50434;45.188;5.712;2022-08-16T12:27:43;98523.25;;;29.08
54306;BMP280;50434;45.188;5.712;2022-08-16T12:30:11;98517.19;;;29.20
54306;BMP280;50434;45.188;5.712;2022-08-16T12:32:37;98515.72;;;29.17
54306;BMP280;50434;45.188;5.712;2022-08-16T12:35:03;98512.22;;;29.18
54306;BMP280;50434;45.188;5.712;2022-08-16T12:37:31;98515.09;;;29.20
54306;BMP280;50434;45.188;5.712;2022-08-16T12:39:57;98508.75;;;29.20
54306;BMP280;50434;45.188;5.712;2022-08-16T12:42:26;98502.69;;;29.36
54306;BMP280;50434;45.188;5.712;2022-08-16T12:44:52;98500.72;;;29.42
54306;BMP280;50434;45.188;5.712;2022-08-16T12:47:18;98487.38;;;29.41
54306;BMP280;50434;45.188;5.712;2022-08-16T12:50:04;98489.72;;;29.54
54306;BMP280;50434;45.188;5.712;2022-08-16T12:52:30;98502.38;;;29.55
54306;BMP280;50434;45.188;5.712;2022-08-16T12:54:56;98493.19;;;29.53
54306;BMP280;50434;45.188;5.712;2022-08-16T12:57:22;98497.34;;;29.50
54306;BMP280;50434;45.188;5.712;2022-08-16T12:59:49;98481.94;;;29.51
54306;BMP280;50434;45.188;5.712;2022-08-16T13:02:14;98488.47;;;29.63
54306;BMP280;50434;45.188;5.712;2022-08-16T13:04:40;98487.13;;;29.68
54306;BMP280;50434;45.188;5.712;2022-08-16T13:07:05;98479.66;;;29.83
54306;BMP280;50434;45.188;5.712;2022-08-16T13:09:31;98486.09;;;29.89
54306;BMP280;50434;45.188;5.712;2022-08-16T13:11:59;98484.75;;;29.94
54306;BMP280;50434;45.188;5.712;2022-08-16T13:14:29;98477.72;;;29.95
54306;BMP280;50434;45.188;5.712;2022-08-16T13:16:56;98479.00;;;29.86
54306;BMP280;50434;45.188;5.712;2022-08-16T13:19:22;98481.72;;;29.80
54306;BMP280;50434;45.188;5.712;2022-08-16T13:21:47;98479.66;;;29.83
54306;BMP280;50434;45.188;5.712;2022-08-16T13:24:12;98473.28;;;29.80
54306;BMP280;50434;45.188;5.712;2022-08-16T13:26:38;98464.88;;;29.82
54306;BMP280;50434;45.188;5.712;2022-08-16T13:29:03;98466.22;;;29.77
54306;BMP280;50434;45.188;5.712;2022-08-16T13:31:29;98461.97;;;29.76
54306;BMP280;50434;45.188;5.712;2022-08-16T13:33:55;98447.34;;;29.84
54306;BMP280;50434;45.188;5.712;2022-08-16T13:36:30;98465.59;;;29.83
54306;BMP280;50434;45.188;5.712;2022-08-16T13:38:56;98457.09;;;29.79
54306;BMP280;50434;45.188;5.712;2022-08-16T13:41:22;98452.13;;;29.75
54306;BMP280;50434;45.188;5.712;2022-08-16T13:43:47;98459.16;;;29.76
54306;BMP280;50434;45.188;5.712;2022-08-16T13:46:13;98461.97;;;29.76
54306;BMP280;50434;45.188;5.712;2022-08-16T13:48:39;98458.34;;;29.70
54306;BMP280;50434;45.188;5.712;2022-08-16T13:51:04;98457.59;;;29.67
54306;BMP280;50434;45.188;5.712;2022-08-16T13:53:31;98465.25;;;29.63
54306;BMP280;50434;45.188;5.712;2022-08-16T13:55:57;98460.28;;;29.57
54306;BMP280;50434;45.188;5.712;2022-08-16T13:58:22;98459.47;;;29.53
54306;BMP280;50434;45.188;5.712;2022-08-16T14:00:48;98470.69;;;29.51
54306;BMP280;50434;45.188;5.712;2022-08-16T14:03:14;98476.19;;;29.45
54306;BMP280;50434;45.188;5.712;2022-08-16T14:05:40;98460.66;;;29.40